Latest Weather Forecast - Saturday 30th November 2019 (6 pm)

Forecast Period: 6:00 pm 30th November  2019 to 6:00 am 1st December  2019
Synopsis: A weak surface trough is affecting the islands
Forecast:

Partly cloudy with occasional scattered showers

Weather 
Advisory:

None
Winds:

ESE - E at 10 to 20 km/h ( 6 – 12 mph)

Sea Conditions:

Slight to moderate in open water with swells from 1.0m to 2.0m

Marine Advisory:

None

Upcoming Tides:
High: 11:32 pm 8:59 am
Low: 2:43 am 5:23 pm

Aviation WX

[Source: ADDS]
METAR
TVSA 251500Z 07005KT 020V160 9999 BKN014 26/23 Q1016 NOSIG =
TVSA 251100Z 2512/2612 06008KT 9999 SCT020 TEMPO 2512/2515 SHRA BKN015 BKN036
TAF
TVSA 251100Z 2512/2612 06008KT 9999 SCT020 TEMPO 2512/2515 SHRA BKN015 BKN036 =
SR / SS: 10:31 / 22:02 UTC (Sunrise Sunset 2021-01-25)